Terminal Aerodrome Forecast
Issued by NWS Raleigh/Durham, NC

Home | Current Version | Previous Version | Text Only | Print | Product List | Glossary On
Versions: 1 2 3 4 5 6 7 8 9 10 11 12 13 14
000
FTUS42 KRAH 251724
TAFRDU
TAF
KRDU 251724Z 2518/2618 22009G16KT P6SM BKN040 BKN250
     FM260000 00000KT P6SM BKN250
     FM261500 18006KT P6SM BKN250=

USA.gov is the U.S. government's official web portal to all federal, state and local government web resources and services.